sensor_id;sensor_type;location;lat;lon;timestamp;P1;durP1;ratioP1;P2;durP2;ratioP2
11761;SDS011;5938;47.098;15.474;2023-07-29T00:00:50;5.60;;;5.10;;
11761;SDS011;5938;47.098;15.474;2023-07-29T00:04:53;6.40;;;5.90;;
11761;SDS011;5938;47.098;15.474;2023-07-29T00:08:57;6.20;;;5.70;;
11761;SDS011;5938;47.098;15.474;2023-07-29T00:13:02;5.60;;;5.10;;
11761;SDS011;5938;47.098;15.474;2023-07-29T00:17:06;6.67;;;5.03;;
11761;SDS011;5938;47.098;15.474;2023-07-29T00:21:09;5.80;;;5.30;;
11761;SDS011;5938;47.098;15.474;2023-07-29T00:25:13;6.10;;;5.50;;
11761;SDS011;5938;47.098;15.474;2023-07-29T00:29:18;5.80;;;5.30;;
11761;SDS011;5938;47.098;15.474;2023-07-29T00:33:23;5.20;;;4.80;;
11761;SDS011;5938;47.098;15.474;2023-07-29T00:37:27;5.00;;;4.50;;
11761;SDS011;5938;47.098;15.474;2023-07-29T00:41:31;6.53;;;4.83;;
11761;SDS011;5938;47.098;15.474;2023-07-29T00:45:36;5.00;;;4.60;;
11761;SDS011;5938;47.098;15.474;2023-07-29T00:49:41;5.53;;;5.03;;
11761;SDS011;5938;47.098;15.474;2023-07-29T00:53:46;5.37;;;4.93;;
11761;SDS011;5938;47.098;15.474;2023-07-29T00:57:50;6.40;;;5.80;;
11761;SDS011;5938;47.098;15.474;2023-07-29T01:01:57;5.90;;;5.13;;
11761;SDS011;5938;47.098;15.474;2023-07-29T01:06:04;5.90;;;5.23;;
11761;SDS011;5938;47.098;15.474;2023-07-29T01:10:18;4.80;;;4.40;;
11761;SDS011;5938;47.098;15.474;2023-07-29T01:14:31;4.87;;;4.40;;
11761;SDS011;5938;47.098;15.474;2023-07-29T01:18:43;6.20;;;5.00;;
11761;SDS011;5938;47.098;15.474;2023-07-29T01:22:50;7.20;;;5.03;;
11761;SDS011;5938;47.098;15.474;2023-07-29T01:26:56;6.13;;;4.60;;
11761;SDS011;5938;47.098;15.474;2023-07-29T01:31:01;5.50;;;5.00;;
11761;SDS011;5938;47.098;15.474;2023-07-29T01:35:11;6.40;;;5.80;;
11761;SDS011;5938;47.098;15.474;2023-07-29T01:39:21;6.13;;;5.00;;
11761;SDS011;5938;47.098;15.474;2023-07-29T01:43:29;5.90;;;5.30;;
11761;SDS011;5938;47.098;15.474;2023-07-29T01:47:32;5.30;;;4.90;;
11761;SDS011;5938;47.098;15.474;2023-07-29T01:51:36;6.40;;;5.20;;
11761;SDS011;5938;47.098;15.474;2023-07-29T01:55:40;5.77;;;5.27;;
11761;SDS011;5938;47.098;15.474;2023-07-29T01:59:47;5.87;;;5.40;;
11761;SDS011;5938;47.098;15.474;2023-07-29T02:03:51;7.33;;;4.77;;
11761;SDS011;5938;47.098;15.474;2023-07-29T02:07:57;6.63;;;4.60;;
11761;SDS011;5938;47.098;15.474;2023-07-29T02:12:00;6.33;;;5.53;;
11761;SDS011;5938;47.098;15.474;2023-07-29T02:16:06;5.73;;;5.23;;
11761;SDS011;5938;47.098;15.474;2023-07-29T02:20:10;8.73;;;5.80;;
11761;SDS011;5938;47.098;15.474;2023-07-29T02:24:14;6.73;;;4.80;;
11761;SDS011;5938;47.098;15.474;2023-07-29T02:28:17;6.30;;;4.60;;
11761;SDS011;5938;47.098;15.474;2023-07-29T02:32:23;6.60;;;5.37;;
11761;SDS011;5938;47.098;15.474;2023-07-29T02:36:48;6.20;;;5.60;;
11761;SDS011;5938;47.098;15.474;2023-07-29T02:40:56;6.50;;;5.33;;
11761;SDS011;5938;47.098;15.474;2023-07-29T02:45:00;5.47;;;4.97;;
11761;SDS011;5938;47.098;15.474;2023-07-29T02:49:05;7.97;;;5.53;;
11761;SDS011;5938;47.098;15.474;2023-07-29T02:53:08;6.63;;;6.03;;
11761;SDS011;5938;47.098;15.474;2023-07-29T02:57:13;9.37;;;5.80;;
11761;SDS011;5938;47.098;15.474;2023-07-29T03:01:16;18.43;;;6.53;;
11761;SDS011;5938;47.098;15.474;2023-07-29T03:05:22;6.30;;;4.87;;
11761;SDS011;5938;47.098;15.474;2023-07-29T03:09:25;6.30;;;5.20;;
11761;SDS011;5938;47.098;15.474;2023-07-29T03:13:29;5.83;;;5.33;;
11761;SDS011;5938;47.098;15.474;2023-07-29T03:17:33;7.20;;;6.47;;
11761;SDS011;5938;47.098;15.474;2023-07-29T03:21:38;5.13;;;4.63;;
11761;SDS011;5938;47.098;15.474;2023-07-29T03:25:49;5.60;;;5.10;;
11761;SDS011;5938;47.098;15.474;2023-07-29T03:29:57;5.77;;;5.27;;
11761;SDS011;5938;47.098;15.474;2023-07-29T03:34:01;5.43;;;4.93;;
11761;SDS011;5938;47.098;15.474;2023-07-29T03:38:09;5.80;;;5.20;;
11761;SDS011;5938;47.098;15.474;2023-07-29T03:42:12;5.63;;;5.13;;
11761;SDS011;5938;47.098;15.474;2023-07-29T03:46:16;6.10;;;5.50;;
11761;SDS011;5938;47.098;15.474;2023-07-29T03:50:23;6.13;;;5.50;;
11761;SDS011;5938;47.098;15.474;2023-07-29T03:54:28;6.50;;;5.90;;
11761;SDS011;5938;47.098;15.474;2023-07-29T04:02:43;6.33;;;5.73;;
11761;SDS011;5938;47.098;15.474;2023-07-29T04:06:48;5.63;;;5.13;;
11761;SDS011;5938;47.098;15.474;2023-07-29T04:10:53;7.13;;;6.40;;
11761;SDS011;5938;47.098;15.474;2023-07-29T04:14:57;6.70;;;5.43;;
11761;SDS011;5938;47.098;15.474;2023-07-29T04:19:01;5.93;;;5.33;;
11761;SDS011;5938;47.098;15.474;2023-07-29T04:23:04;6.83;;;6.23;;
11761;SDS011;5938;47.098;15.474;2023-07-29T04:27:11;6.87;;;5.87;;
11761;SDS011;5938;47.098;15.474;2023-07-29T04:31:14;5.87;;;5.37;;
11761;SDS011;5938;47.098;15.474;2023-07-29T04:35:17;6.27;;;5.73;;
11761;SDS011;5938;47.098;15.474;2023-07-29T04:39:21;6.63;;;5.43;;
11761;SDS011;5938;47.098;15.474;2023-07-29T04:43:27;6.77;;;6.07;;
11761;SDS011;5938;47.098;15.474;2023-07-29T04:47:33;5.83;;;5.30;;
11761;SDS011;5938;47.098;15.474;2023-07-29T04:51:39;19.83;;;6.07;;
11761;SDS011;5938;47.098;15.474;2023-07-29T04:55:42;6.23;;;5.00;;
11761;SDS011;5938;47.098;15.474;2023-07-29T04:59:47;7.03;;;6.00;;
11761;SDS011;5938;47.098;15.474;2023-07-29T05:03:50;6.57;;;5.97;;
11761;SDS011;5938;47.098;15.474;2023-07-29T05:07:54;5.60;;;5.10;;
11761;SDS011;5938;47.098;15.474;2023-07-29T05:11:57;10.40;;;5.30;;
11761;SDS011;5938;47.098;15.474;2023-07-29T05:16:02;5.60;;;5.10;;
11761;SDS011;5938;47.098;15.474;2023-07-29T05:20:07;4.73;;;4.40;;
11761;SDS011;5938;47.098;15.474;2023-07-29T05:24:11;4.80;;;4.37;;
11761;SDS011;5938;47.098;15.474;2023-07-29T05:28:14;5.20;;;4.70;;
11761;SDS011;5938;47.098;15.474;2023-07-29T05:32:20;5.73;;;5.23;;
11761;SDS011;5938;47.098;15.474;2023-07-29T05:36:24;7.07;;;4.90;;
11761;SDS011;5938;47.098;15.474;2023-07-29T05:40:27;5.30;;;4.80;;
11761;SDS011;5938;47.098;15.474;2023-07-29T05:44:31;6.40;;;5.83;;
11761;SDS011;5938;47.098;15.474;2023-07-29T05:48:36;5.60;;;5.10;;
11761;SDS011;5938;47.098;15.474;2023-07-29T05:52:39;5.00;;;4.50;;
11761;SDS011;5938;47.098;15.474;2023-07-29T05:56:42;6.10;;;5.57;;
11761;SDS011;5938;47.098;15.474;2023-07-29T06:00:46;5.87;;;5.27;;
11761;SDS011;5938;47.098;15.474;2023-07-29T06:04:52;6.23;;;4.80;;
11761;SDS011;5938;47.098;15.474;2023-07-29T06:08:55;6.28;;;5.10;;
11761;SDS011;5938;47.098;15.474;2023-07-29T06:12:59;5.37;;;4.83;;
11761;SDS011;5938;47.098;15.474;2023-07-29T06:17:03;5.93;;;5.33;;
11761;SDS011;5938;47.098;15.474;2023-07-29T06:21:10;5.00;;;4.60;;
11761;SDS011;5938;47.098;15.474;2023-07-29T06:25:18;4.17;;;3.87;;
11761;SDS011;5938;47.098;15.474;2023-07-29T06:29:22;6.40;;;5.33;;
11761;SDS011;5938;47.098;15.474;2023-07-29T06:33:25;5.77;;;5.17;;
11761;SDS011;5938;47.098;15.474;2023-07-29T06:37:30;8.17;;;4.87;;
11761;SDS011;5938;47.098;15.474;2023-07-29T06:41:34;5.27;;;4.77;;
11761;SDS011;5938;47.098;15.474;2023-07-29T06:45:38;4.10;;;3.80;;
11761;SDS011;5938;47.098;15.474;2023-07-29T06:49:41;5.20;;;4.50;;
11761;SDS011;5938;47.098;15.474;2023-07-29T06:53:47;4.00;;;3.70;;
11761;SDS011;5938;47.098;15.474;2023-07-29T06:57:51;5.20;;;4.20;;
11761;SDS011;5938;47.098;15.474;2023-07-29T07:01:55;7.23;;;4.40;;
11761;SDS011;5938;47.098;15.474;2023-07-29T07:05:58;4.63;;;4.00;;
11761;SDS011;5938;47.098;15.474;2023-07-29T07:10:04;6.60;;;4.80;;
11761;SDS011;5938;47.098;15.474;2023-07-29T07:14:08;4.50;;;4.10;;
11761;SDS011;5938;47.098;15.474;2023-07-29T07:18:11;4.90;;;4.50;;
11761;SDS011;5938;47.098;15.474;2023-07-29T07:22:17;4.83;;;4.13;;
11761;SDS011;5938;47.098;15.474;2023-07-29T07:26:22;6.40;;;4.23;;
11761;SDS011;5938;47.098;15.474;2023-07-29T07:30:25;4.00;;;3.60;;
11761;SDS011;5938;47.098;15.474;2023-07-29T07:34:29;6.80;;;3.97;;
11761;SDS011;5938;47.098;15.474;2023-07-29T07:38:32;4.93;;;3.90;;
11761;SDS011;5938;47.098;15.474;2023-07-29T07:42:37;4.50;;;4.10;;
11761;SDS011;5938;47.098;15.474;2023-07-29T07:46:42;4.07;;;3.67;;
11761;SDS011;5938;47.098;15.474;2023-07-29T07:50:45;6.50;;;3.93;;
11761;SDS011;5938;47.098;15.474;2023-07-29T07:54:51;4.07;;;3.77;;
11761;SDS011;5938;47.098;15.474;2023-07-29T07:58:56;5.03;;;4.10;;
11761;SDS011;5938;47.098;15.474;2023-07-29T08:03:00;4.80;;;4.30;;
11761;SDS011;5938;47.098;15.474;2023-07-29T08:07:04;4.60;;;4.20;;
11761;SDS011;5938;47.098;15.474;2023-07-29T08:11:08;4.40;;;4.00;;
11761;SDS011;5938;47.098;15.474;2023-07-29T08:15:12;4.80;;;4.50;;
11761;SDS011;5938;47.098;15.474;2023-07-29T08:19:16;4.23;;;3.83;;
11761;SDS011;5938;47.098;15.474;2023-07-29T08:23:24;5.87;;;4.10;;
11761;SDS011;5938;47.098;15.474;2023-07-29T08:27:27;5.13;;;3.90;;
11761;SDS011;5938;47.098;15.474;2023-07-29T08:31:32;4.60;;;4.20;;
11761;SDS011;5938;47.098;15.474;2023-07-29T08:35:35;4.07;;;3.77;;
11761;SDS011;5938;47.098;15.474;2023-07-29T08:39:39;3.80;;;3.40;;
11761;SDS011;5938;47.098;15.474;2023-07-29T08:43:45;3.90;;;3.60;;
11761;SDS011;5938;47.098;15.474;2023-07-29T08:47:57;3.97;;;3.03;;
11761;SDS011;5938;47.098;15.474;2023-07-29T08:52:01;3.50;;;3.20;;
11761;SDS011;5938;47.098;15.474;2023-07-29T08:56:07;3.63;;;3.30;;
11761;SDS011;5938;47.098;15.474;2023-07-29T09:00:11;4.53;;;3.67;;
11761;SDS011;5938;47.098;15.474;2023-07-29T09:04:18;3.93;;;3.63;;
11761;SDS011;5938;47.098;15.474;2023-07-29T09:08:21;4.23;;;3.83;;
11761;SDS011;5938;47.098;15.474;2023-07-29T09:12:26;3.43;;;3.13;;
11761;SDS011;5938;47.098;15.474;2023-07-29T09:16:31;3.77;;;3.13;;
11761;SDS011;5938;47.098;15.474;2023-07-29T09:20:37;3.77;;;3.03;;
11761;SDS011;5938;47.098;15.474;2023-07-29T09:24:41;3.27;;;3.07;;
11761;SDS011;5938;47.098;15.474;2023-07-29T09:28:45;2.70;;;2.50;;
11761;SDS011;5938;47.098;15.474;2023-07-29T09:32:55;3.97;;;3.40;;
11761;SDS011;5938;47.098;15.474;2023-07-29T09:37:00;3.30;;;3.10;;
11761;SDS011;5938;47.098;15.474;2023-07-29T09:41:04;3.07;;;2.87;;
11761;SDS011;5938;47.098;15.474;2023-07-29T09:45:07;2.90;;;2.70;;
11761;SDS011;5938;47.098;15.474;2023-07-29T09:49:11;3.50;;;3.03;;
11761;SDS011;5938;47.098;15.474;2023-07-29T09:53:16;2.90;;;2.70;;
11761;SDS011;5938;47.098;15.474;2023-07-29T09:57:21;3.10;;;2.40;;
11761;SDS011;5938;47.098;15.474;2023-07-29T10:01:24;3.00;;;2.70;;
11761;SDS011;5938;47.098;15.474;2023-07-29T10:05:28;4.50;;;3.10;;
11761;SDS011;5938;47.098;15.474;2023-07-29T10:09:34;3.90;;;2.60;;
11761;SDS011;5938;47.098;15.474;2023-07-29T10:13:38;3.57;;;3.27;;
11761;SDS011;5938;47.098;15.474;2023-07-29T10:17:43;3.40;;;3.10;;
11761;SDS011;5938;47.098;15.474;2023-07-29T10:21:50;3.63;;;3.37;;
11761;SDS011;5938;47.098;15.474;2023-07-29T10:25:57;3.50;;;2.70;;
11761;SDS011;5938;47.098;15.474;2023-07-29T10:30:06;2.93;;;2.73;;
11761;SDS011;5938;47.098;15.474;2023-07-29T10:34:11;3.73;;;3.40;;
11761;SDS011;5938;47.098;15.474;2023-07-29T10:38:16;3.13;;;2.50;;
11761;SDS011;5938;47.098;15.474;2023-07-29T10:42:22;2.80;;;2.60;;
11761;SDS011;5938;47.098;15.474;2023-07-29T10:46:25;3.00;;;2.80;;
11761;SDS011;5938;47.098;15.474;2023-07-29T10:50:29;2.83;;;2.63;;
11761;SDS011;5938;47.098;15.474;2023-07-29T11:00:07;2.97;;;2.73;;
11761;SDS011;5938;47.098;15.474;2023-07-29T11:04:24;3.37;;;2.63;;
11761;SDS011;5938;47.098;15.474;2023-07-29T11:08:30;3.50;;;3.20;;
11761;SDS011;5938;47.098;15.474;2023-07-29T11:12:36;2.77;;;2.57;;
11761;SDS011;5938;47.098;15.474;2023-07-29T11:21:26;3.67;;;2.77;;
11761;SDS011;5938;47.098;15.474;2023-07-29T11:25:30;3.17;;;2.97;;
11761;SDS011;5938;47.098;15.474;2023-07-29T11:29:36;2.73;;;2.53;;
11761;SDS011;5938;47.098;15.474;2023-07-29T11:33:41;2.63;;;2.20;;
11761;SDS011;5938;47.098;15.474;2023-07-29T11:37:47;2.63;;;2.40;;
11761;SDS011;5938;47.098;15.474;2023-07-29T11:41:51;2.73;;;2.40;;
11761;SDS011;5938;47.098;15.474;2023-07-29T11:45:54;2.87;;;2.67;;
11761;SDS011;5938;47.098;15.474;2023-07-29T11:54:08;2.73;;;2.53;;
11761;SDS011;5938;47.098;15.474;2023-07-29T11:58:11;2.27;;;2.17;;
11761;SDS011;5938;47.098;15.474;2023-07-29T12:02:16;2.27;;;2.07;;
11761;SDS011;5938;47.098;15.474;2023-07-29T12:06:23;2.23;;;2.03;;
11761;SDS011;5938;47.098;15.474;2023-07-29T12:10:45;2.50;;;2.30;;
11761;SDS011;5938;47.098;15.474;2023-07-29T12:14:49;2.40;;;2.23;;
11761;SDS011;5938;47.098;15.474;2023-07-29T12:18:52;2.10;;;2.00;;
11761;SDS011;5938;47.098;15.474;2023-07-29T12:22:58;2.80;;;2.60;;
11761;SDS011;5938;47.098;15.474;2023-07-29T12:27:04;2.67;;;2.23;;
11761;SDS011;5938;47.098;15.474;2023-07-29T12:31:10;2.57;;;2.37;;
11761;SDS011;5938;47.098;15.474;2023-07-29T12:35:13;2.27;;;2.07;;
11761;SDS011;5938;47.098;15.474;2023-07-29T12:39:19;2.80;;;2.60;;
11761;SDS011;5938;47.098;15.474;2023-07-29T12:43:26;2.93;;;2.43;;
11761;SDS011;5938;47.098;15.474;2023-07-29T12:47:30;4.17;;;3.00;;
11761;SDS011;5938;47.098;15.474;2023-07-29T12:51:35;2.93;;;2.73;;
11761;SDS011;5938;47.098;15.474;2023-07-29T12:55:40;3.30;;;3.00;;
11761;SDS011;5938;47.098;15.474;2023-07-29T12:59:44;2.87;;;2.67;;
11761;SDS011;5938;47.098;15.474;2023-07-29T13:03:47;3.07;;;2.87;;
11761;SDS011;5938;47.098;15.474;2023-07-29T13:07:51;2.70;;;2.13;;
11761;SDS011;5938;47.098;15.474;2023-07-29T13:11:56;3.00;;;2.57;;
11761;SDS011;5938;47.098;15.474;2023-07-29T13:16:01;2.87;;;2.67;;
11761;SDS011;5938;47.098;15.474;2023-07-29T13:20:05;4.20;;;3.53;;
11761;SDS011;5938;47.098;15.474;2023-07-29T13:24:09;3.03;;;2.77;;
11761;SDS011;5938;47.098;15.474;2023-07-29T13:28:15;3.33;;;3.00;;
11761;SDS011;5938;47.098;15.474;2023-07-29T13:32:19;2.80;;;2.60;;
11761;SDS011;5938;47.098;15.474;2023-07-29T13:36:22;3.10;;;2.80;;
11761;SDS011;5938;47.098;15.474;2023-07-29T13:40:26;2.70;;;2.50;;
11761;SDS011;5938;47.098;15.474;2023-07-29T13:44:32;2.10;;;1.83;;
11761;SDS011;5938;47.098;15.474;2023-07-29T13:48:35;2.30;;;2.10;;
11761;SDS011;5938;47.098;15.474;2023-07-29T13:52:39;2.30;;;2.20;;
11761;SDS011;5938;47.098;15.474;2023-07-29T13:56:43;2.13;;;2.00;;
11761;SDS011;5938;47.098;15.474;2023-07-29T14:00:48;2.23;;;2.13;;
11761;SDS011;5938;47.098;15.474;2023-07-29T14:04:51;2.80;;;2.60;;
11761;SDS011;5938;47.098;15.474;2023-07-29T14:08:55;3.60;;;2.37;;
11761;SDS011;5938;47.098;15.474;2023-07-29T14:12:58;2.77;;;2.57;;
11761;SDS011;5938;47.098;15.474;2023-07-29T14:17:03;3.03;;;2.77;;
11761;SDS011;5938;47.098;15.474;2023-07-29T14:21:08;2.57;;;2.37;;
11761;SDS011;5938;47.098;15.474;2023-07-29T14:25:16;2.80;;;2.60;;
11761;SDS011;5938;47.098;15.474;2023-07-29T14:29:20;2.60;;;2.40;;
11761;SDS011;5938;47.098;15.474;2023-07-29T14:33:25;2.77;;;2.57;;
11761;SDS011;5938;47.098;15.474;2023-07-29T14:37:29;3.00;;;2.50;;
11761;SDS011;5938;47.098;15.474;2023-07-29T14:41:34;2.83;;;2.60;;
11761;SDS011;5938;47.098;15.474;2023-07-29T14:45:44;3.57;;;3.13;;
11761;SDS011;5938;47.098;15.474;2023-07-29T14:49:53;3.27;;;2.97;;
11761;SDS011;5938;47.098;15.474;2023-07-29T14:54:03;3.07;;;2.87;;
11761;SDS011;5938;47.098;15.474;2023-07-29T14:58:12;2.80;;;2.60;;
11761;SDS011;5938;47.098;15.474;2023-07-29T15:02:19;2.70;;;2.07;;
11761;SDS011;5938;47.098;15.474;2023-07-29T15:06:26;2.30;;;2.10;;
11761;SDS011;5938;47.098;15.474;2023-07-29T15:10:32;2.70;;;2.50;;
11761;SDS011;5938;47.098;15.474;2023-07-29T15:14:37;2.30;;;2.20;;
11761;SDS011;5938;47.098;15.474;2023-07-29T15:18:43;2.10;;;2.00;;
11761;SDS011;5938;47.098;15.474;2023-07-29T15:22:49;2.70;;;2.50;;
11761;SDS011;5938;47.098;15.474;2023-07-29T15:26:55;2.80;;;2.60;;
11761;SDS011;5938;47.098;15.474;2023-07-29T15:30:59;2.37;;;2.20;;
11761;SDS011;5938;47.098;15.474;2023-07-29T15:35:05;2.60;;;2.40;;
11761;SDS011;5938;47.098;15.474;2023-07-29T15:39:15;2.40;;;2.20;;
11761;SDS011;5938;47.098;15.474;2023-07-29T15:43:23;2.10;;;2.00;;
11761;SDS011;5938;47.098;15.474;2023-07-29T15:47:29;2.77;;;2.57;;
11761;SDS011;5938;47.098;15.474;2023-07-29T15:51:37;2.20;;;2.10;;
11761;SDS011;5938;47.098;15.474;2023-07-29T15:55:48;2.60;;;2.40;;
11761;SDS011;5938;47.098;15.474;2023-07-29T15:59:53;2.90;;;2.70;;
11761;SDS011;5938;47.098;15.474;2023-07-29T16:03:57;2.60;;;2.40;;
11761;SDS011;5938;47.098;15.474;2023-07-29T16:08:03;2.43;;;2.23;;
11761;SDS011;5938;47.098;15.474;2023-07-29T16:12:10;2.30;;;2.10;;
11761;SDS011;5938;47.098;15.474;2023-07-29T16:16:18;2.03;;;1.90;;
11761;SDS011;5938;47.098;15.474;2023-07-29T16:20:27;6.70;;;2.87;;
11761;SDS011;5938;47.098;15.474;2023-07-29T16:24:37;3.30;;;1.90;;
11761;SDS011;5938;47.098;15.474;2023-07-29T16:28:45;3.23;;;2.53;;
11761;SDS011;5938;47.098;15.474;2023-07-29T16:32:52;2.60;;;2.40;;
11761;SDS011;5938;47.098;15.474;2023-07-29T16:36:57;3.17;;;2.87;;
11761;SDS011;5938;47.098;15.474;2023-07-29T16:41:03;2.80;;;2.60;;
11761;SDS011;5938;47.098;15.474;2023-07-29T16:45:28;2.60;;;2.40;;
11761;SDS011;5938;47.098;15.474;2023-07-29T16:49:32;3.03;;;2.83;;
11761;SDS011;5938;47.098;15.474;2023-07-29T16:53:35;3.07;;;2.87;;
11761;SDS011;5938;47.098;15.474;2023-07-29T16:57:39;3.10;;;2.80;;
11761;SDS011;5938;47.098;15.474;2023-07-29T17:01:44;3.73;;;3.33;;
11761;SDS011;5938;47.098;15.474;2023-07-29T17:05:54;3.13;;;2.83;;
11761;SDS011;5938;47.098;15.474;2023-07-29T17:10:07;2.97;;;2.67;;
11761;SDS011;5938;47.098;15.474;2023-07-29T17:14:13;3.20;;;2.47;;
11761;SDS011;5938;47.098;15.474;2023-07-29T17:18:18;3.50;;;3.17;;
11761;SDS011;5938;47.098;15.474;2023-07-29T17:22:23;3.37;;;3.07;;
11761;SDS011;5938;47.098;15.474;2023-07-29T17:26:35;3.30;;;3.00;;
11761;SDS011;5938;47.098;15.474;2023-07-29T17:30:43;2.90;;;2.70;;
11761;SDS011;5938;47.098;15.474;2023-07-29T17:40:28;3.57;;;3.27;;
11761;SDS011;5938;47.098;15.474;2023-07-29T17:44:40;5.80;;;3.40;;
11761;SDS011;5938;47.098;15.474;2023-07-29T17:48:44;3.23;;;2.93;;
11761;SDS011;5938;47.098;15.474;2023-07-29T17:52:50;6.23;;;3.90;;
11761;SDS011;5938;47.098;15.474;2023-07-29T17:57:04;3.60;;;3.30;;
11761;SDS011;5938;47.098;15.474;2023-07-29T18:01:18;4.47;;;3.07;;
11761;SDS011;5938;47.098;15.474;2023-07-29T18:05:26;3.23;;;2.90;;
11761;SDS011;5938;47.098;15.474;2023-07-29T18:09:31;3.17;;;2.90;;
11761;SDS011;5938;47.098;15.474;2023-07-29T18:13:40;3.40;;;3.00;;
11761;SDS011;5938;47.098;15.474;2023-07-29T18:17:50;4.40;;;3.40;;
11761;SDS011;5938;47.098;15.474;2023-07-29T18:21:59;7.27;;;3.57;;
11761;SDS011;5938;47.098;15.474;2023-07-29T18:26:08;2.90;;;2.70;;
11761;SDS011;5938;47.098;15.474;2023-07-29T18:30:18;3.50;;;3.00;;
11761;SDS011;5938;47.098;15.474;2023-07-29T18:34:32;4.40;;;3.47;;
11761;SDS011;5938;47.098;15.474;2023-07-29T18:39:03;3.80;;;2.90;;
11761;SDS011;5938;47.098;15.474;2023-07-29T18:43:42;3.27;;;2.97;;
11761;SDS011;5938;47.098;15.474;2023-07-29T18:47:53;3.30;;;3.10;;
11761;SDS011;5938;47.098;15.474;2023-07-29T18:52:05;3.53;;;3.23;;
11761;SDS011;5938;47.098;15.474;2023-07-29T18:56:27;4.70;;;3.87;;
11761;SDS011;5938;47.098;15.474;2023-07-29T19:00:59;5.03;;;3.30;;
11761;SDS011;5938;47.098;15.474;2023-07-29T19:05:12;3.77;;;3.47;;
11761;SDS011;5938;47.098;15.474;2023-07-29T19:09:25;3.53;;;3.23;;
11761;SDS011;5938;47.098;15.474;2023-07-29T19:18:38;4.30;;;3.10;;
11761;SDS011;5938;47.098;15.474;2023-07-29T19:22:52;3.57;;;3.27;;
11761;SDS011;5938;47.098;15.474;2023-07-29T19:27:17;3.67;;;3.37;;
11761;SDS011;5938;47.098;15.474;2023-07-29T19:31:29;5.50;;;3.60;;
11761;SDS011;5938;47.098;15.474;2023-07-29T19:40:34;3.77;;;3.47;;
11761;SDS011;5938;47.098;15.474;2023-07-29T19:44:48;3.30;;;3.10;;
11761;SDS011;5938;47.098;15.474;2023-07-29T19:48:57;3.73;;;3.40;;
11761;SDS011;5938;47.098;15.474;2023-07-29T19:53:03;4.00;;;3.30;;
11761;SDS011;5938;47.098;15.474;2023-07-29T19:57:16;3.87;;;3.57;;
11761;SDS011;5938;47.098;15.474;2023-07-29T20:01:20;5.00;;;4.50;;
11761;SDS011;5938;47.098;15.474;2023-07-29T20:05:26;5.40;;;5.00;;
11761;SDS011;5938;47.098;15.474;2023-07-29T20:09:32;6.20;;;3.97;;
11761;SDS011;5938;47.098;15.474;2023-07-29T20:13:39;5.20;;;4.23;;
11761;SDS011;5938;47.098;15.474;2023-07-29T20:17:46;4.57;;;3.73;;
11761;SDS011;5938;47.098;15.474;2023-07-29T20:22:04;3.03;;;2.67;;
11761;SDS011;5938;47.098;15.474;2023-07-29T20:26:09;4.70;;;3.63;;
11761;SDS011;5938;47.098;15.474;2023-07-29T20:30:17;3.93;;;3.37;;
11761;SDS011;5938;47.098;15.474;2023-07-29T20:34:24;5.33;;;3.10;;
11761;SDS011;5938;47.098;15.474;2023-07-29T20:39:59;2.90;;;2.70;;
11761;SDS011;5938;47.098;15.474;2023-07-29T20:44:55;3.30;;;3.00;;
11761;SDS011;5938;47.098;15.474;2023-07-29T20:49:26;5.27;;;3.30;;
11761;SDS011;5938;47.098;15.474;2023-07-29T20:53:37;4.17;;;3.63;;
11761;SDS011;5938;47.098;15.474;2023-07-29T20:58:23;5.90;;;3.53;;
11761;SDS011;5938;47.098;15.474;2023-07-29T21:02:58;3.30;;;2.87;;
11761;SDS011;5938;47.098;15.474;2023-07-29T21:07:14;3.30;;;2.37;;
11761;SDS011;5938;47.098;15.474;2023-07-29T21:11:51;5.90;;;3.00;;
11761;SDS011;5938;47.098;15.474;2023-07-29T21:16:46;3.73;;;3.13;;
11761;SDS011;5938;47.098;15.474;2023-07-29T21:21:54;3.23;;;2.63;;
11761;SDS011;5938;47.098;15.474;2023-07-29T21:26:09;1.50;;;1.17;;
11761;SDS011;5938;47.098;15.474;2023-07-29T21:30:14;1.63;;;1.10;;
11761;SDS011;5938;47.098;15.474;2023-07-29T21:34:18;1.87;;;1.67;;
11761;SDS011;5938;47.098;15.474;2023-07-29T21:38:21;1.93;;;1.50;;
11761;SDS011;5938;47.098;15.474;2023-07-29T21:42:32;1.50;;;1.20;;
11761;SDS011;5938;47.098;15.474;2023-07-29T21:46:35;2.67;;;1.80;;
11761;SDS011;5938;47.098;15.474;2023-07-29T21:50:40;2.10;;;1.90;;
11761;SDS011;5938;47.098;15.474;2023-07-29T21:54:43;1.60;;;1.50;;
11761;SDS011;5938;47.098;15.474;2023-07-29T21:58:48;2.40;;;1.47;;
11761;SDS011;5938;47.098;15.474;2023-07-29T22:02:51;2.10;;;1.90;;
11761;SDS011;5938;47.098;15.474;2023-07-29T22:06:56;2.77;;;2.23;;
11761;SDS011;5938;47.098;15.474;2023-07-29T22:11:02;2.53;;;2.33;;
11761;SDS011;5938;47.098;15.474;2023-07-29T22:15:07;2.30;;;2.10;;
11761;SDS011;5938;47.098;15.474;2023-07-29T22:19:12;3.17;;;2.53;;
11761;SDS011;5938;47.098;15.474;2023-07-29T22:23:15;2.63;;;2.40;;
11761;SDS011;5938;47.098;15.474;2023-07-29T22:27:19;2.38;;;1.88;;
11761;SDS011;5938;47.098;15.474;2023-07-29T22:31:24;3.00;;;2.50;;
11761;SDS011;5938;47.098;15.474;2023-07-29T22:35:27;2.53;;;2.10;;
11761;SDS011;5938;47.098;15.474;2023-07-29T22:39:31;2.47;;;2.27;;
11761;SDS011;5938;47.098;15.474;2023-07-29T22:43:34;2.07;;;1.87;;
11761;SDS011;5938;47.098;15.474;2023-07-29T22:47:39;2.93;;;2.20;;
11761;SDS011;5938;47.098;15.474;2023-07-29T22:51:43;3.40;;;2.00;;
11761;SDS011;5938;47.098;15.474;2023-07-29T22:55:48;2.57;;;1.73;;
11761;SDS011;5938;47.098;15.474;2023-07-29T22:59:52;4.07;;;2.10;;
11761;SDS011;5938;47.098;15.474;2023-07-29T23:03:57;3.90;;;2.13;;
11761;SDS011;5938;47.098;15.474;2023-07-29T23:08:01;4.37;;;2.30;;
11761;SDS011;5938;47.098;15.474;2023-07-29T23:12:04;2.50;;;2.07;;
11761;SDS011;5938;47.098;15.474;2023-07-29T23:16:08;2.77;;;1.90;;
11761;SDS011;5938;47.098;15.474;2023-07-29T23:20:13;2.17;;;1.97;;
11761;SDS011;5938;47.098;15.474;2023-07-29T23:24:16;2.50;;;2.30;;
11761;SDS011;5938;47.098;15.474;2023-07-29T23:28:20;2.67;;;2.43;;
11761;SDS011;5938;47.098;15.474;2023-07-29T23:32:23;2.80;;;2.33;;
11761;SDS011;5938;47.098;15.474;2023-07-29T23:36:28;2.77;;;2.37;;
11761;SDS011;5938;47.098;15.474;2023-07-29T23:40:31;5.30;;;2.37;;
11761;SDS011;5938;47.098;15.474;2023-07-29T23:44:35;3.80;;;2.60;;
11761;SDS011;5938;47.098;15.474;2023-07-29T23:48:38;2.63;;;2.03;;
11761;SDS011;5938;47.098;15.474;2023-07-29T23:52:43;2.80;;;2.30;;
11761;SDS011;5938;47.098;15.474;2023-07-29T23:56:47;4.93;;;2.50;;
